Time;durP1;ratioP1;P1;durP2;ratioP2;P2;SDS_P1;SDS_P2;PMS_P1;PMS_P2;Temp;Humidity;BMP_temperature;BMP_pressure;BME280_temperature;BME280_humidity;BME280_pressure;Samples;Min_cycle;Max_cycle;Signal;HPM_P1;HPM_P2
2019/12/19 00:01:42;;;;;;;2.10;1.71;;;;;;;20.54;45.25;100659.80;;;;-56
2019/12/19 00:04:42;;;;;;;1.85;1.69;;;;;;;20.53;45.23;100656.61;;;;-57
2019/12/19 00:07:42;;;;;;;2.15;1.93;;;;;;;20.52;45.21;100653.61;;;;-59
2019/12/19 00:10:42;;;;;;;2.27;1.90;;;;;;;20.50;45.22;100644.13;;;;-59
2019/12/19 00:13:42;;;;;;;2.05;1.81;;;;;;;20.48;45.23;100641.06;;;;-57
2019/12/19 00:16:47;;;;;;;2.17;1.89;;;;;;;20.47;45.23;100638.30;;;;-58
2019/12/19 00:19:42;;;;;;;2.49;1.98;;;;;;;20.45;45.28;100638.41;;;;-58
2019/12/19 00:22:42;;;;;;;2.00;1.74;;;;;;;20.44;45.29;100640.84;;;;-58
2019/12/19 00:25:42;;;;;;;2.32;1.88;;;;;;;20.42;45.25;100635.56;;;;-57
2019/12/19 00:28:42;;;;;;;2.21;1.79;;;;;;;20.40;45.26;100633.67;;;;-59
2019/12/19 00:37:02;;;;;;;1.78;1.68;;;;;;;20.38;45.24;100614.85;;;;-56
2019/12/19 00:40:02;;;;;;;1.81;1.69;;;;;;;20.36;45.27;100611.41;;;;-57
2019/12/19 00:43:02;;;;;;;2.53;1.73;;;;;;;20.35;45.28;100605.94;;;;-57
2019/12/19 00:46:02;;;;;;;2.06;1.84;;;;;;;20.34;45.26;100596.56;;;;-57
2019/12/19 00:49:02;;;;;;;2.10;1.90;;;;;;;20.32;45.27;100592.13;;;;-58
2019/12/19 00:52:02;;;;;;;2.24;1.82;;;;;;;20.31;45.26;100589.06;;;;-58
2019/12/19 00:55:02;;;;;;;2.04;1.80;;;;;;;20.31;45.29;100586.44;;;;-58
2019/12/19 00:58:02;;;;;;;1.90;1.72;;;;;;;20.30;45.29;100584.38;;;;-58
2019/12/19 01:01:16;;;;;;;1.98;1.76;;;;;;;20.28;45.30;100584.23;;;;-57
2019/12/19 01:08:06;;;;;;;2.11;1.70;;;;;;;20.25;45.32;100572.40;;;;-57
2019/12/19 01:11:05;;;;;;;1.91;1.72;;;;;;;20.24;45.31;100576.11;;;;-57
2019/12/19 01:14:02;;;;;;;2.52;1.88;;;;;;;20.22;45.34;100573.17;;;;-57
2019/12/19 01:17:02;;;;;;;1.92;1.73;;;;;;;20.22;45.37;100567.88;;;;-58
2019/12/19 01:20:02;;;;;;;1.95;1.74;;;;;;;20.21;45.33;100566.59;;;;-57
2019/12/19 01:23:02;;;;;;;2.32;1.76;;;;;;;20.21;45.32;100563.90;;;;-57
2019/12/19 01:26:02;;;;;;;2.37;1.83;;;;;;;20.19;45.37;100556.11;;;;-57
2019/12/19 01:29:02;;;;;;;1.82;1.70;;;;;;;20.18;45.33;100557.97;;;;-58
2019/12/19 01:32:02;;;;;;;2.19;1.80;;;;;;;20.17;45.34;100553.91;;;;-57
2019/12/19 01:35:02;;;;;;;1.90;1.74;;;;;;;20.16;45.34;100558.83;;;;-57
2019/12/19 01:38:02;;;;;;;2.24;1.71;;;;;;;20.15;45.42;100558.11;;;;-58
2019/12/19 01:41:03;;;;;;;1.94;1.79;;;;;;;20.14;45.38;100553.70;;;;-58
2019/12/19 01:44:02;;;;;;;3.05;1.78;;;;;;;20.13;45.42;100553.44;;;;-57
2019/12/19 01:47:09;;;;;;;2.61;1.82;;;;;;;20.11;45.41;100547.14;;;;-58
2019/12/19 01:50:08;;;;;;;2.51;2.04;;;;;;;20.10;45.37;100546.42;;;;-58
2019/12/19 01:53:02;;;;;;;1.89;1.72;;;;;;;20.10;45.37;100541.39;;;;-59
2019/12/19 01:56:02;;;;;;;2.21;1.80;;;;;;;20.09;45.39;100541.75;;;;-57
2019/12/19 01:59:02;;;;;;;2.59;1.77;;;;;;;20.08;45.38;100540.88;;;;-56
2019/12/19 02:02:02;;;;;;;2.29;1.82;;;;;;;20.07;45.40;100539.36;;;;-57
2019/12/19 02:05:02;;;;;;;1.87;1.70;;;;;;;20.06;45.39;100542.23;;;;-58
2019/12/19 02:08:02;;;;;;;2.00;1.80;;;;;;;20.04;45.40;100534.44;;;;-58
2019/12/19 02:11:02;;;;;;;2.08;1.77;;;;;;;20.03;45.36;100538.41;;;;-58
2019/12/19 02:14:02;;;;;;;2.23;1.90;;;;;;;20.03;45.34;100533.95;;;;-58
2019/12/19 02:17:02;;;;;;;1.96;1.65;;;;;;;20.02;45.44;100538.20;;;;-57
2019/12/19 02:20:02;;;;;;;2.27;1.74;;;;;;;20.01;45.41;100542.18;;;;-57
2019/12/19 02:23:02;;;;;;;2.03;1.80;;;;;;;20.00;45.39;100538.78;;;;-57
2019/12/19 02:26:02;;;;;;;1.97;1.75;;;;;;;19.99;45.47;100538.13;;;;-58
2019/12/19 02:29:02;;;;;;;1.91;1.80;;;;;;;19.99;45.43;100532.09;;;;-57
2019/12/19 02:32:02;;;;;;;1.87;1.76;;;;;;;19.98;45.39;100536.39;;;;-58
2019/12/19 02:35:02;;;;;;;1.93;1.64;;;;;;;19.97;45.40;100527.09;;;;-58
2019/12/19 02:38:02;;;;;;;2.19;1.71;;;;;;;19.96;45.41;100517.02;;;;-58
2019/12/19 02:41:02;;;;;;;2.34;1.89;;;;;;;19.96;45.41;100522.65;;;;-57
2019/12/19 02:44:02;;;;;;;2.01;1.82;;;;;;;19.94;45.39;100518.08;;;;-57
2019/12/19 02:47:02;;;;;;;1.91;1.71;;;;;;;19.94;45.38;100512.84;;;;-58
2019/12/19 02:50:02;;;;;;;2.25;1.75;;;;;;;19.92;45.42;100511.62;;;;-58
2019/12/19 02:53:02;;;;;;;1.89;1.70;;;;;;;19.92;45.37;100513.19;;;;-58
2019/12/19 02:56:08;;;;;;;2.05;1.75;;;;;;;19.91;45.40;100516.23;;;;-58
2019/12/19 03:05:41;;;;;;;2.01;1.80;;;;;;;19.89;45.40;100505.35;;;;-58
2019/12/19 03:12:02;;;;;;;1.87;1.75;;;;;;;19.87;45.37;100502.85;;;;-58
2019/12/19 03:15:03;;;;;;;1.94;1.70;;;;;;;19.86;45.41;100502.60;;;;-58
2019/12/19 03:18:01;;;;;;;1.96;1.83;;;;;;;19.85;45.40;100501.09;;;;-58
2019/12/19 03:21:01;;;;;;;2.55;1.82;;;;;;;19.85;45.43;100497.06;;;;-57
2019/12/19 03:24:01;;;;;;;2.54;1.68;;;;;;;19.84;45.35;100497.36;;;;-57
2019/12/19 03:27:01;;;;;;;1.95;1.77;;;;;;;19.83;45.35;100486.08;;;;-57
2019/12/19 03:30:01;;;;;;;2.21;1.77;;;;;;;19.83;45.38;100484.13;;;;-58
2019/12/19 03:33:01;;;;;;;2.57;1.83;;;;;;;19.81;45.31;100477.79;;;;-58
2019/12/19 03:36:01;;;;;;;2.42;1.73;;;;;;;19.81;45.36;100471.48;;;;-56
2019/12/19 03:39:01;;;;;;;2.36;1.70;;;;;;;19.80;45.37;100470.61;;;;-57
2019/12/19 03:42:01;;;;;;;2.11;1.85;;;;;;;19.80;45.31;100467.75;;;;-57
2019/12/19 03:45:02;;;;;;;2.08;1.59;;;;;;;19.78;45.34;100472.46;;;;-57
2019/12/19 03:48:01;;;;;;;2.31;1.84;;;;;;;19.78;45.34;100468.78;;;;-57
2019/12/19 03:51:01;;;;;;;2.00;1.77;;;;;;;19.77;45.33;100469.06;;;;-57
2019/12/19 03:54:08;;;;;;;1.76;1.66;;;;;;;19.75;45.37;100471.77;;;;-58
2019/12/19 03:57:01;;;;;;;1.98;1.72;;;;;;;19.76;45.33;100465.91;;;;-57
2019/12/19 04:00:01;;;;;;;2.09;1.73;;;;;;;19.75;45.27;100470.72;;;;-57
2019/12/19 04:03:01;;;;;;;2.00;1.58;;;;;;;19.74;45.33;100476.08;;;;-56
2019/12/19 04:06:01;;;;;;;2.17;1.91;;;;;;;19.73;45.28;100478.55;;;;-57
2019/12/19 04:09:01;;;;;;;2.35;1.77;;;;;;;19.72;45.35;100475.82;;;;-58
2019/12/19 04:12:01;;;;;;;2.04;1.74;;;;;;;19.71;45.32;100473.66;;;;-57
2019/12/19 04:15:01;;;;;;;2.33;1.82;;;;;;;19.70;45.33;100474.89;;;;-57
2019/12/19 04:18:01;;;;;;;1.77;1.64;;;;;;;19.70;45.34;100474.63;;;;-59
2019/12/19 04:21:01;;;;;;;2.73;1.87;;;;;;;19.70;45.33;100478.44;;;;-57
2019/12/19 04:24:01;;;;;;;1.83;1.73;;;;;;;19.69;45.33;100485.47;;;;-58
2019/12/19 04:27:01;;;;;;;1.95;1.70;;;;;;;19.69;45.32;100489.78;;;;-58
2019/12/19 04:30:01;;;;;;;2.73;1.75;;;;;;;19.68;45.31;100487.77;;;;-57
2019/12/19 04:33:01;;;;;;;2.19;1.82;;;;;;;19.67;45.35;100490.41;;;;-57
2019/12/19 04:36:01;;;;;;;2.40;1.89;;;;;;;19.66;45.37;100490.77;;;;-57
2019/12/19 04:39:01;;;;;;;1.95;1.73;;;;;;;19.66;45.25;100493.38;;;;-57
2019/12/19 04:42:01;;;;;;;1.79;1.69;;;;;;;19.66;45.32;100490.80;;;;-57
2019/12/19 04:45:01;;;;;;;2.03;1.59;;;;;;;19.66;45.34;100488.19;;;;-57
2019/12/19 04:48:01;;;;;;;2.20;1.77;;;;;;;19.67;45.38;100489.41;;;;-57
2019/12/19 04:51:01;;;;;;;2.21;1.70;;;;;;;19.69;45.33;100491.30;;;;-57
2019/12/19 04:54:01;;;;;;;2.97;1.85;;;;;;;19.70;45.32;100493.39;;;;-57
2019/12/19 04:57:03;;;;;;;1.89;1.69;;;;;;;19.72;45.38;100492.44;;;;-57
2019/12/19 05:00:01;;;;;;;2.45;1.60;;;;;;;19.73;45.39;100494.42;;;;-57
2019/12/19 05:03:01;;;;;;;1.70;1.60;;;;;;;19.75;45.37;100491.37;;;;-58
2019/12/19 05:06:01;;;;;;;2.47;1.71;;;;;;;19.77;45.36;100483.81;;;;-57
2019/12/19 05:09:01;;;;;;;1.93;1.72;;;;;;;19.81;45.37;100487.23;;;;-58
2019/12/19 05:12:01;;;;;;;2.01;1.81;;;;;;;19.84;45.38;100482.67;;;;-57
2019/12/19 05:15:01;;;;;;;2.04;1.84;;;;;;;19.88;45.35;100480.06;;;;-57
2019/12/19 05:18:01;;;;;;;2.27;1.90;;;;;;;19.91;45.31;100481.53;;;;-59
2019/12/19 05:21:01;;;;;;;2.33;1.87;;;;;;;19.95;45.46;100485.77;;;;-57
2019/12/19 05:24:01;;;;;;;1.98;1.77;;;;;;;19.98;45.44;100486.86;;;;-58
2019/12/19 05:27:01;;;;;;;1.99;1.79;;;;;;;20.01;45.40;100488.97;;;;-58
2019/12/19 05:30:01;;;;;;;1.89;1.78;;;;;;;20.04;45.43;100494.97;;;;-57
2019/12/19 05:33:01;;;;;;;2.24;1.79;;;;;;;20.07;45.42;100492.14;;;;-57
2019/12/19 05:36:01;;;;;;;2.17;1.67;;;;;;;20.12;45.43;100498.80;;;;-57
2019/12/19 05:39:01;;;;;;;2.15;1.95;;;;;;;20.14;45.50;100509.44;;;;-58
2019/12/19 05:42:01;;;;;;;1.95;1.80;;;;;;;20.17;45.48;100508.50;;;;-57
2019/12/19 05:45:01;;;;;;;2.33;1.91;;;;;;;20.21;45.51;100507.13;;;;-59
2019/12/19 05:48:01;;;;;;;2.55;1.90;;;;;;;20.23;45.50;100500.84;;;;-57
2019/12/19 05:51:23;;;;;;;2.79;2.10;;;;;;;20.26;45.48;100495.33;;;;-57
2019/12/19 05:54:05;;;;;;;2.44;2.04;;;;;;;20.29;45.49;100499.41;;;;-58
2019/12/19 05:57:01;;;;;;;2.27;2.00;;;;;;;20.32;45.43;100499.43;;;;-57
2019/12/19 06:00:01;;;;;;;2.25;2.00;;;;;;;20.35;45.46;100502.69;;;;-57
2019/12/19 06:03:01;;;;;;;2.31;2.11;;;;;;;20.37;45.45;100494.04;;;;-56
2019/12/19 06:06:01;;;;;;;3.54;2.11;;;;;;;20.40;45.45;100491.42;;;;-58
2019/12/19 06:09:00;;;;;;;2.23;1.99;;;;;;;20.43;45.43;100495.70;;;;-57
2019/12/19 06:12:01;;;;;;;2.47;2.13;;;;;;;20.45;45.43;100498.13;;;;-56
2019/12/19 06:15:01;;;;;;;2.31;1.91;;;;;;;20.46;45.41;100502.06;;;;-57
2019/12/19 06:18:01;;;;;;;2.63;2.14;;;;;;;20.48;45.40;100498.59;;;;-57
2019/12/19 06:21:01;;;;;;;2.26;2.06;;;;;;;20.50;45.38;100503.27;;;;-56
2019/12/19 06:24:01;;;;;;;3.23;1.96;;;;;;;20.51;45.36;100519.05;;;;-57
2019/12/19 06:27:01;;;;;;;2.44;2.12;;;;;;;20.54;45.33;100520.81;;;;-57
2019/12/19 06:30:01;;;;;;;2.33;2.02;;;;;;;20.56;45.34;100525.83;;;;-58
2019/12/19 06:33:04;;;;;;;2.30;2.10;;;;;;;20.57;45.34;100524.46;;;;-57
2019/12/19 06:36:01;;;;;;;2.46;2.26;;;;;;;20.59;45.30;100526.05;;;;-56
2019/12/19 06:39:01;;;;;;;3.00;2.10;;;;;;;20.60;45.27;100527.88;;;;-57
2019/12/19 06:42:01;;;;;;;2.59;1.92;;;;;;;20.63;45.24;100533.59;;;;-57
2019/12/19 06:45:01;;;;;;;2.54;2.02;;;;;;;20.65;45.24;100538.05;;;;-57
2019/12/19 06:48:01;;;;;;;2.37;2.10;;;;;;;20.68;45.22;100541.19;;;;-59
2019/12/19 06:51:01;;;;;;;2.72;2.25;;;;;;;20.69;45.20;100539.55;;;;-57
2019/12/19 06:54:01;;;;;;;2.16;1.95;;;;;;;20.70;45.18;100541.34;;;;-57
2019/12/19 06:57:01;;;;;;;2.21;2.00;;;;;;;20.73;45.12;100544.55;;;;-57
2019/12/19 07:00:01;;;;;;;2.13;1.92;;;;;;;20.75;45.08;100536.34;;;;-56
2019/12/19 07:03:01;;;;;;;2.13;1.90;;;;;;;20.76;45.03;100533.02;;;;-57
2019/12/19 07:06:00;;;;;;;2.48;1.99;;;;;;;20.78;44.93;100525.04;;;;-56
2019/12/19 07:09:01;;;;;;;2.23;1.96;;;;;;;20.77;45.01;100522.72;;;;-57
2019/12/19 07:12:01;;;;;;;2.24;2.03;;;;;;;20.79;44.95;100512.22;;;;-55
2019/12/19 07:15:01;;;;;;;2.35;2.10;;;;;;;20.79;44.93;100511.72;;;;-58
2019/12/19 07:18:01;;;;;;;2.27;2.07;;;;;;;20.80;44.91;100502.94;;;;-56
2019/12/19 07:21:01;;;;;;;2.25;2.05;;;;;;;20.79;44.81;100495.04;;;;-58
2019/12/19 07:24:01;;;;;;;2.27;2.03;;;;;;;20.80;44.87;100491.92;;;;-56
2019/12/19 07:27:01;;;;;;;2.10;1.90;;;;;;;20.81;44.81;100485.55;;;;-57
2019/12/19 07:30:01;;;;;;;2.29;2.09;;;;;;;20.80;44.79;100477.83;;;;-56
2019/12/19 07:33:01;;;;;;;2.16;1.96;;;;;;;20.81;44.75;100471.48;;;;-59
2019/12/19 07:36:01;;;;;;;2.03;1.83;;;;;;;20.82;44.77;100469.24;;;;-57
2019/12/19 07:39:01;;;;;;;2.17;1.97;;;;;;;20.82;44.67;100464.71;;;;-56
2019/12/19 07:42:01;;;;;;;2.24;2.04;;;;;;;20.82;44.71;100462.56;;;;-57
2019/12/19 07:45:01;;;;;;;2.21;2.01;;;;;;;20.83;44.67;100458.97;;;;-56
2019/12/19 07:48:01;;;;;;;2.27;2.07;;;;;;;20.84;44.66;100451.92;;;;-55
2019/12/19 07:51:01;;;;;;;2.30;2.10;;;;;;;20.85;44.60;100451.63;;;;-56
2019/12/19 07:54:01;;;;;;;2.31;1.96;;;;;;;20.85;44.63;100450.05;;;;-57
2019/12/19 07:57:01;;;;;;;2.80;2.10;;;;;;;20.85;44.62;100449.28;;;;-57
2019/12/19 08:00:01;;;;;;;2.35;2.11;;;;;;;20.87;44.56;100441.73;;;;-55
2019/12/19 08:03:12;;;;;;;5.51;2.09;;;;;;;20.88;44.63;100440.70;;;;-52
2019/12/19 08:06:01;;;;;;;6.19;2.45;;;;;;;20.89;44.06;100437.18;;;;-52
2019/12/19 08:09:01;;;;;;;3.83;2.41;;;;;;;20.90;44.45;100432.28;;;;-52
2019/12/19 08:12:01;;;;;;;4.17;2.81;;;;;;;20.90;44.38;100429.43;;;;-52
2019/12/19 08:15:01;;;;;;;4.22;2.51;;;;;;;20.94;44.33;100422.80;;;;-50
2019/12/19 08:18:01;;;;;;;2.92;2.48;;;;;;;20.97;44.42;100427.28;;;;-52
2019/12/19 08:21:01;;;;;;;5.62;2.41;;;;;;;20.99;44.57;100426.65;;;;-51
2019/12/19 08:24:01;;;;;;;3.68;2.25;;;;;;;21.02;44.48;100427.37;;;;-51
2019/12/19 08:27:01;;;;;;;2.34;2.05;;;;;;;21.05;44.82;100427.25;;;;-51
2019/12/19 08:30:01;;;;;;;2.41;2.21;;;;;;;21.08;44.68;100419.16;;;;-53
2019/12/19 08:33:01;;;;;;;4.31;2.20;;;;;;;21.09;44.67;100420.18;;;;-52
2019/12/19 08:36:01;;;;;;;3.09;2.16;;;;;;;21.11;44.69;100414.01;;;;-57
2019/12/19 08:39:01;;;;;;;2.31;2.11;;;;;;;21.15;44.64;100410.13;;;;-47
2019/12/19 08:42:01;;;;;;;2.86;2.23;;;;;;;21.16;44.50;100397.66;;;;-48
2019/12/19 08:45:01;;;;;;;2.28;2.08;;;;;;;21.18;44.68;100390.69;;;;-47
2019/12/19 08:48:01;;;;;;;2.32;2.01;;;;;;;21.22;44.49;100401.20;;;;-49
2019/12/19 08:51:01;;;;;;;2.95;2.11;;;;;;;21.22;44.56;100396.27;;;;-49
2019/12/19 08:54:01;;;;;;;2.81;2.25;;;;;;;21.23;44.52;100390.33;;;;-49
2019/12/19 08:57:04;;;;;;;2.91;2.11;;;;;;;21.23;44.54;100396.98;;;;-49
2019/12/19 09:00:01;;;;;;;3.20;2.11;;;;;;;21.23;44.56;100400.73;;;;-49
2019/12/19 09:03:01;;;;;;;2.17;1.99;;;;;;;21.23;44.58;100396.70;;;;-49
2019/12/19 09:06:01;;;;;;;3.07;2.21;;;;;;;21.23;44.47;100392.28;;;;-49
2019/12/19 09:09:01;;;;;;;2.46;2.19;;;;;;;21.24;44.50;100389.69;;;;-49
2019/12/19 09:12:01;;;;;;;2.27;2.07;;;;;;;21.23;44.38;100387.07;;;;-49
2019/12/19 09:15:01;;;;;;;2.21;2.05;;;;;;;21.23;44.38;100386.39;;;;-48
2019/12/19 09:18:01;;;;;;;2.29;2.09;;;;;;;21.23;44.39;100376.83;;;;-45
2019/12/19 09:21:01;;;;;;;2.38;2.16;;;;;;;21.24;44.42;100373.16;;;;-49
2019/12/19 09:24:01;;;;;;;2.27;2.05;;;;;;;21.24;44.40;100370.64;;;;-49
2019/12/19 09:27:01;;;;;;;2.52;2.07;;;;;;;21.26;44.38;100371.79;;;;-49
2019/12/19 09:30:01;;;;;;;2.12;1.93;;;;;;;21.25;44.32;100370.17;;;;-49
2019/12/19 09:33:01;;;;;;;2.51;2.31;;;;;;;21.26;44.29;100371.05;;;;-49
2019/12/19 09:36:01;;;;;;;2.83;2.10;;;;;;;21.27;44.32;100377.03;;;;-49
2019/12/19 09:39:01;;;;;;;2.41;2.02;;;;;;;21.26;44.32;100373.06;;;;-48
2019/12/19 09:42:01;;;;;;;2.25;2.05;;;;;;;21.26;44.33;100369.71;;;;-48
2019/12/19 09:45:01;;;;;;;2.27;2.07;;;;;;;21.26;44.30;100370.72;;;;-45
2019/12/19 09:48:01;;;;;;;2.19;1.99;;;;;;;21.27;44.21;100361.81;;;;-45
2019/12/19 09:51:01;;;;;;;2.83;2.11;;;;;;;21.28;44.24;100361.61;;;;-49
2019/12/19 09:54:01;;;;;;;2.42;2.01;;;;;;;21.28;44.20;100353.79;;;;-49
2019/12/19 09:57:01;;;;;;;2.86;2.23;;;;;;;21.28;44.22;100351.88;;;;-45
2019/12/19 10:00:01;;;;;;;2.11;1.91;;;;;;;21.29;44.16;100355.09;;;;-45
2019/12/19 10:03:01;;;;;;;4.81;2.16;;;;;;;21.28;44.28;100347.94;;;;-47
2019/12/19 10:06:02;;;;;;;3.32;2.44;;;;;;;21.24;43.29;100337.12;;;;-45
2019/12/19 10:09:01;;;;;;;3.11;2.60;;;;;;;21.22;43.09;100332.34;;;;-44
2019/12/19 10:12:05;;;;;;;2.86;2.41;;;;;;;21.21;43.38;100325.59;;;;-44
2019/12/19 10:15:01;;;;;;;4.19;2.53;;;;;;;21.21;43.69;100316.86;;;;-46
2019/12/19 10:18:01;;;;;;;3.75;2.43;;;;;;;21.20;43.68;100304.50;;;;-47
2019/12/19 10:21:01;;;;;;;4.24;2.51;;;;;;;21.21;43.55;100307.45;;;;-49
2019/12/19 10:24:01;;;;;;;5.39;2.54;;;;;;;21.22;43.63;100306.41;;;;-48
2019/12/19 10:27:01;;;;;;;4.62;2.65;;;;;;;21.22;43.44;100305.23;;;;-47
2019/12/19 10:30:01;;;;;;;5.33;2.66;;;;;;;21.23;43.81;100302.98;;;;-45
2019/12/19 10:33:01;;;;;;;3.91;2.62;;;;;;;21.23;43.59;100290.73;;;;-45
2019/12/19 10:36:01;;;;;;;5.01;2.65;;;;;;;21.22;43.71;100289.28;;;;-46
2019/12/19 10:39:01;;;;;;;4.56;2.73;;;;;;;21.23;43.59;100300.97;;;;-44
2019/12/19 10:42:02;;;;;;;4.50;2.65;;;;;;;21.24;43.88;100305.14;;;;-47
2019/12/19 10:45:01;;;;;;;3.76;2.65;;;;;;;21.25;43.98;100301.21;;;;-48
2019/12/19 10:48:01;;;;;;;5.14;2.73;;;;;;;21.24;43.52;100298.32;;;;-46
2019/12/19 10:51:01;;;;;;;3.99;2.63;;;;;;;21.23;43.52;100285.02;;;;-43
2019/12/19 10:54:01;;;;;;;3.17;2.79;;;;;;;21.24;43.57;100281.80;;;;-44
2019/12/19 10:57:01;;;;;;;3.04;2.61;;;;;;;21.24;43.65;100283.47;;;;-45
2019/12/19 11:00:01;;;;;;;4.76;2.80;;;;;;;21.24;43.91;100271.05;;;;-44
2019/12/19 11:03:01;;;;;;;3.88;2.93;;;;;;;21.24;43.84;100265.67;;;;-44
2019/12/19 11:06:01;;;;;;;5.05;3.47;;;;;;;21.25;43.13;100257.55;;;;-46
2019/12/19 11:09:06;;;;;;;5.95;4.13;;;;;;;21.23;42.97;100248.91;;;;-47
2019/12/19 11:12:01;;;;;;;5.63;3.64;;;;;;;21.21;43.36;100246.32;;;;-50
2019/12/19 11:15:01;;;;;;;7.55;3.87;;;;;;;21.23;43.37;100240.28;;;;-50
2019/12/19 11:18:01;;;;;;;6.07;3.80;;;;;;;21.26;43.27;100236.17;;;;-46
2019/12/19 11:21:01;;;;;;;6.53;3.55;;;;;;;21.28;43.30;100235.30;;;;-46
2019/12/19 11:24:01;;;;;;;5.18;3.18;;;;;;;21.29;43.24;100228.95;;;;-46
2019/12/19 11:27:01;;;;;;;7.27;3.53;;;;;;;21.29;43.20;100222.57;;;;-46
2019/12/19 11:30:01;;;;;;;3.93;3.27;;;;;;;21.30;43.40;100215.05;;;;-47
2019/12/19 11:33:19;;;;;;;4.77;3.20;;;;;;;21.29;43.31;100213.91;;;;-47
2019/12/19 11:36:01;;;;;;;4.53;3.17;;;;;;;21.29;43.34;100204.44;;;;-46
2019/12/19 11:39:01;;;;;;;3.59;3.08;;;;;;;21.29;43.37;100201.51;;;;-47
2019/12/19 11:42:01;;;;;;;4.04;2.97;;;;;;;21.28;43.35;100196.73;;;;-46
2019/12/19 11:45:01;;;;;;;3.61;3.09;;;;;;;21.29;43.36;100195.43;;;;-47
2019/12/19 11:48:01;;;;;;;4.56;3.19;;;;;;;21.28;43.36;100190.89;;;;-46
2019/12/19 11:51:01;;;;;;;3.93;3.19;;;;;;;21.29;43.37;100189.55;;;;-46
2019/12/19 11:54:01;;;;;;;3.87;3.20;;;;;;;21.29;43.41;100178.73;;;;-47
2019/12/19 11:57:01;;;;;;;3.57;3.03;;;;;;;21.29;43.43;100169.77;;;;-46
2019/12/19 12:00:01;;;;;;;4.69;3.20;;;;;;;21.30;43.40;100165.33;;;;-46
2019/12/19 12:03:01;;;;;;;4.27;3.24;;;;;;;21.29;43.43;100158.41;;;;-47
2019/12/19 12:06:01;;;;;;;3.57;3.05;;;;;;;21.29;43.44;100148.66;;;;-47
2019/12/19 12:09:01;;;;;;;5.20;3.19;;;;;;;21.29;43.43;100143.62;;;;-47
2019/12/19 12:12:01;;;;;;;3.50;3.13;;;;;;;21.28;43.45;100144.37;;;;-50
2019/12/19 12:15:01;;;;;;;3.59;2.89;;;;;;;21.28;43.48;100147.97;;;;-50
2019/12/19 12:18:01;;;;;;;4.09;3.32;;;;;;;21.28;43.46;100148.03;;;;-50
2019/12/19 12:21:01;;;;;;;3.66;3.03;;;;;;;21.28;43.46;100142.69;;;;-50
2019/12/19 12:24:56;;;;;;;3.71;3.33;;;;;;;21.28;43.52;100136.38;;;;-50
2019/12/19 12:27:02;;;;;;;3.15;2.83;;;;;;;21.27;43.51;100133.42;;;;-50
2019/12/19 12:30:24;;;;;;;5.13;3.01;;;;;;;21.27;43.50;100129.79;;;;-50
2019/12/19 12:33:01;;;;;;;3.62;3.06;;;;;;;21.27;43.54;100131.98;;;;-50
2019/12/19 12:36:01;;;;;;;3.11;2.81;;;;;;;21.26;43.55;100132.61;;;;-50
2019/12/19 12:39:01;;;;;;;3.21;2.91;;;;;;;21.27;43.55;100134.05;;;;-50
2019/12/19 12:42:01;;;;;;;4.01;3.11;;;;;;;21.27;43.59;100128.85;;;;-50
2019/12/19 12:45:01;;;;;;;3.20;2.90;;;;;;;21.26;43.58;100120.62;;;;-50
2019/12/19 12:48:01;;;;;;;3.96;2.79;;;;;;;21.27;43.56;100116.52;;;;-50
2019/12/19 12:51:01;;;;;;;3.27;2.86;;;;;;;21.26;43.57;100116.16;;;;-50
2019/12/19 12:54:01;;;;;;;3.06;2.76;;;;;;;21.26;43.59;100114.41;;;;-50
2019/12/19 12:57:01;;;;;;;5.36;3.10;;;;;;;21.29;43.96;100108.96;;;;-54
2019/12/19 13:00:01;;;;;;;4.75;2.98;;;;;;;21.30;43.76;100097.37;;;;-58
2019/12/19 13:03:01;;;;;;;6.37;3.11;;;;;;;21.35;44.11;100096.89;;;;-47
2019/12/19 13:06:01;;;;;;;5.54;2.91;;;;;;;21.37;44.15;100087.54;;;;-47
2019/12/19 13:09:01;;;;;;;6.60;3.41;;;;;;;21.38;43.91;100084.52;;;;-46
2019/12/19 13:12:01;;;;;;;5.56;3.24;;;;;;;21.40;44.11;100073.99;;;;-47
2019/12/19 13:15:01;;;;;;;6.75;2.96;;;;;;;21.40;44.09;100057.63;;;;-51
2019/12/19 13:18:01;;;;;;;4.47;2.94;;;;;;;21.41;44.03;100045.36;;;;-50
2019/12/19 13:21:01;;;;;;;4.43;2.83;;;;;;;21.44;44.09;100046.97;;;;-52
2019/12/19 13:24:01;;;;;;;4.55;3.01;;;;;;;21.45;44.29;100041.95;;;;-46
2019/12/19 13:27:01;;;;;;;4.29;2.81;;;;;;;21.47;44.53;100034.66;;;;-46
2019/12/19 13:30:01;;;;;;;3.81;2.72;;;;;;;21.48;44.17;100031.97;;;;-46
2019/12/19 13:33:01;;;;;;;5.69;2.88;;;;;;;21.49;44.27;100030.08;;;;-45
2019/12/19 13:36:01;;;;;;;3.79;2.75;;;;;;;21.50;44.24;100026.51;;;;-43
2019/12/19 13:39:02;;;;;;;6.65;3.09;;;;;;;21.52;44.65;100017.13;;;;-43
2019/12/19 13:42:01;;;;;;;7.61;2.93;;;;;;;21.51;44.34;100016.26;;;;-47
2019/12/19 13:45:01;;;;;;;5.13;3.03;;;;;;;21.51;44.51;100007.05;;;;-47
2019/12/19 13:48:01;;;;;;;5.61;2.73;;;;;;;21.51;44.40;99999.66;;;;-46
2019/12/19 13:51:01;;;;;;;3.70;2.71;;;;;;;21.51;44.41;99991.56;;;;-47
2019/12/19 13:54:01;;;;;;;4.47;2.78;;;;;;;21.53;44.66;99990.44;;;;-44
2019/12/19 13:57:01;;;;;;;3.78;2.98;;;;;;;21.54;44.16;99994.53;;;;-50
2019/12/19 14:00:01;;;;;;;4.43;2.89;;;;;;;21.52;44.29;99992.59;;;;-48
2019/12/19 14:03:01;;;;;;;5.32;2.95;;;;;;;21.51;44.38;99990.08;;;;-45
2019/12/19 14:06:01;;;;;;;5.71;2.76;;;;;;;21.52;44.55;99989.84;;;;-46
2019/12/19 14:09:01;;;;;;;5.12;2.79;;;;;;;21.53;44.38;99983.82;;;;-45
2019/12/19 14:12:01;;;;;;;3.55;2.80;;;;;;;21.54;44.51;99988.12;;;;-54
2019/12/19 14:15:01;;;;;;;4.45;2.80;;;;;;;21.54;44.21;99992.42;;;;-45
2019/12/19 14:18:01;;;;;;;4.80;3.15;;;;;;;21.55;44.41;99994.30;;;;-47
2019/12/19 14:21:01;;;;;;;4.33;2.90;;;;;;;21.54;44.45;99996.21;;;;-44
2019/12/19 14:24:01;;;;;;;4.04;2.65;;;;;;;21.57;44.59;99992.57;;;;-49
2019/12/19 14:27:01;;;;;;;3.76;2.60;;;;;;;21.56;44.51;99991.30;;;;-46
2019/12/19 14:30:01;;;;;;;3.54;2.57;;;;;;;21.57;44.31;99987.87;;;;-43
2019/12/19 14:33:01;;;;;;;3.72;2.74;;;;;;;21.58;44.50;99987.05;;;;-45
2019/12/19 14:36:01;;;;;;;4.16;2.62;;;;;;;21.58;44.44;99989.84;;;;-51
2019/12/19 14:39:01;;;;;;;3.91;2.78;;;;;;;21.58;44.42;99993.04;;;;-49
2019/12/19 14:42:01;;;;;;;6.21;2.56;;;;;;;21.58;44.28;99990.81;;;;-47
2019/12/19 14:45:01;;;;;;;2.91;2.61;;;;;;;21.60;44.57;99990.51;;;;-47
2019/12/19 14:48:01;;;;;;;3.40;2.80;;;;;;;21.58;44.42;99988.63;;;;-46
2019/12/19 14:51:01;;;;;;;4.38;2.75;;;;;;;21.60;44.54;99985.87;;;;-45
2019/12/19 14:54:04;;;;;;;2.89;2.50;;;;;;;21.57;44.27;99978.32;;;;-45
2019/12/19 14:57:04;;;;;;;3.59;2.75;;;;;;;21.61;44.64;99977.27;;;;-48
2019/12/19 15:00:01;;;;;;;3.23;2.85;;;;;;;21.60;44.53;99984.05;;;;-50
2019/12/19 15:03:01;;;;;;;4.01;2.73;;;;;;;21.60;44.31;99993.39;;;;-47
2019/12/19 15:06:01;;;;;;;5.56;2.77;;;;;;;21.60;44.32;99997.27;;;;-48
2019/12/19 15:09:01;;;;;;;5.26;2.70;;;;;;;21.60;44.33;99999.68;;;;-48
2019/12/19 15:12:01;;;;;;;5.27;2.94;;;;;;;21.60;44.68;99998.77;;;;-46
2019/12/19 15:15:01;;;;;;;3.83;2.78;;;;;;;21.62;44.70;99997.31;;;;-46
2019/12/19 15:18:01;;;;;;;2.73;2.50;;;;;;;21.64;44.66;99997.84;;;;-50
2019/12/19 15:21:01;;;;;;;5.58;2.79;;;;;;;21.63;44.49;100000.37;;;;-45
2019/12/19 15:24:01;;;;;;;3.88;2.74;;;;;;;21.65;44.74;100000.30;;;;-45
2019/12/19 15:27:02;;;;;;;3.34;2.81;;;;;;;21.67;44.57;99999.88;;;;-44
2019/12/19 15:30:01;;;;;;;2.97;2.65;;;;;;;21.66;44.62;100000.79;;;;-48
2019/12/19 15:33:01;;;;;;;3.73;2.97;;;;;;;21.67;44.50;99994.84;;;;-46
2019/12/19 15:36:01;;;;;;;3.69;2.91;;;;;;;21.68;44.46;99989.96;;;;-44
2019/12/19 15:39:01;;;;;;;3.79;2.85;;;;;;;21.67;44.42;99990.70;;;;-51
2019/12/19 15:42:01;;;;;;;3.94;2.88;;;;;;;21.68;44.48;99989.82;;;;-47
2019/12/19 15:45:01;;;;;;;4.39;2.83;;;;;;;21.70;44.63;99990.69;;;;-46
2019/12/19 15:48:02;;;;;;;3.01;2.76;;;;;;;21.69;44.40;99985.21;;;;-47
2019/12/19 15:51:01;;;;;;;3.11;2.69;;;;;;;21.71;44.49;99981.73;;;;-43
2019/12/19 15:54:01;;;;;;;3.83;2.86;;;;;;;21.69;44.18;99975.46;;;;-44
2019/12/19 15:57:02;;;;;;;4.03;2.81;;;;;;;21.70;44.32;99981.20;;;;-46
2019/12/19 16:00:00;;;;;;;4.25;3.17;;;;;;;21.70;44.54;99977.78;;;;-45
2019/12/19 16:03:01;;;;;;;3.46;2.97;;;;;;;21.71;44.68;99967.69;;;;-47
2019/12/19 16:06:01;;;;;;;3.71;2.84;;;;;;;21.71;44.54;99958.95;;;;-42
2019/12/19 16:09:02;;;;;;;4.64;2.99;;;;;;;21.71;44.63;99950.41;;;;-44
2019/12/19 16:12:02;;;;;;;3.34;2.97;;;;;;;21.72;44.58;99941.53;;;;-47
2019/12/19 16:15:04;;;;;;;4.72;2.90;;;;;;;21.72;44.62;99926.64;;;;-45
2019/12/19 16:18:02;;;;;;;4.17;2.83;;;;;;;21.73;44.72;99915.74;;;;-51
2019/12/19 16:21:01;;;;;;;3.07;2.77;;;;;;;21.72;44.70;99915.38;;;;-44
2019/12/19 16:24:01;;;;;;;3.35;3.05;;;;;;;21.75;44.30;99898.82;;;;-46
2019/12/19 16:27:01;;;;;;;3.23;2.77;;;;;;;21.72;44.22;99888.09;;;;-46
2019/12/19 16:30:01;;;;;;;4.63;3.34;;;;;;;21.71;44.05;99883.35;;;;-47
2019/12/19 16:33:01;;;;;;;4.33;3.24;;;;;;;21.71;43.98;99881.57;;;;-51
2019/12/19 16:36:01;;;;;;;4.14;3.15;;;;;;;21.69;43.90;99873.86;;;;-51
2019/12/19 16:39:01;;;;;;;4.81;3.07;;;;;;;21.67;43.85;99874.67;;;;-51
2019/12/19 16:42:01;;;;;;;3.27;2.97;;;;;;;21.67;43.87;99871.05;;;;-51
2019/12/19 16:45:01;;;;;;;3.07;2.77;;;;;;;21.68;43.92;99868.39;;;;-51
2019/12/19 16:48:01;;;;;;;3.65;3.18;;;;;;;21.67;43.88;99870.03;;;;-51
2019/12/19 16:51:01;;;;;;;4.14;3.02;;;;;;;21.67;43.89;99878.44;;;;-51
2019/12/19 16:54:01;;;;;;;3.67;2.96;;;;;;;21.67;43.87;99889.63;;;;-50
2019/12/19 16:57:01;;;;;;;3.40;3.10;;;;;;;21.67;43.87;99895.66;;;;-51
2019/12/19 17:00:01;;;;;;;3.61;3.13;;;;;;;21.67;43.84;99895.42;;;;-51
2019/12/19 17:03:01;;;;;;;3.22;2.92;;;;;;;21.67;43.84;99893.56;;;;-51